Time;durP1;ratioP1;P1;durP2;ratioP2;P2;SDS_P1;SDS_P2;PMS_P1;PMS_P2;Temp;Humidity;BMP_temperature;BMP_pressure;BME280_temperature;BME280_humidity;BME280_pressure;Samples;Min_cycle;Max_cycle;Signal;HPM_P1;HPM_P2
2021/05/07 00:01:25;;;;;;;16.82;7.55;;;;;;;6.59;73.30;99687.09;1737853;79;25851;-61
2021/05/07 00:03:53;;;;;;;14.05;7.22;;;;;;;6.57;73.33;99685.42;1775497;78;26137;-62
2021/05/07 00:06:21;;;;;;;16.10;7.60;;;;;;;6.57;73.35;99687.62;1761259;79;25923;-62
2021/05/07 00:08:48;;;;;;;13.32;7.87;;;;;;;6.54;73.36;99681.09;1760057;78;27603;-61
2021/05/07 00:11:21;;;;;;;16.02;6.83;;;;;;;6.54;73.40;99677.09;1769981;79;25809;-62
2021/05/07 00:13:49;;;;;;;17.57;8.33;;;;;;;6.53;73.39;99674.50;1718300;80;25866;-62
2021/05/07 00:16:18;;;;;;;18.10;8.50;;;;;;;6.50;73.52;99671.03;1704384;82;25915;-61
2021/05/07 00:18:46;;;;;;;11.53;6.50;;;;;;;6.50;73.54;99670.17;1716859;82;25861;-60
2021/05/07 00:21:15;;;;;;;14.68;7.47;;;;;;;6.50;73.52;99670.17;1743171;80;28371;-62
2021/05/07 00:23:43;;;;;;;14.28;7.85;;;;;;;6.50;73.55;99666.18;1740987;80;25855;-62
2021/05/07 00:26:11;;;;;;;15.43;7.75;;;;;;;6.49;73.59;99664.45;1731482;81;25899;-61
2021/05/07 00:28:40;;;;;;;13.32;7.47;;;;;;;6.49;73.62;99662.65;1735027;80;25981;-62
2021/05/07 00:31:08;;;;;;;18.40;7.85;;;;;;;6.48;73.68;99664.91;1739853;80;26018;-62
2021/05/07 00:33:36;;;;;;;17.17;8.50;;;;;;;6.50;73.66;99653.73;1738765;79;27751;-62
2021/05/07 00:36:06;;;;;;;15.08;7.72;;;;;;;6.50;73.74;99658.19;1723289;81;26089;-61
2021/05/07 00:38:34;;;;;;;13.18;7.25;;;;;;;6.51;73.73;99658.13;1714641;81;25863;-61
2021/05/07 00:41:03;;;;;;;14.53;7.62;;;;;;;6.51;73.74;99650.14;1723804;81;26525;-61
2021/05/07 00:43:32;;;;;;;16.82;7.60;;;;;;;6.51;73.73;99648.81;1713722;81;25938;-62
2021/05/07 00:46:00;;;;;;;12.73;7.00;;;;;;;6.50;73.72;99643.55;1719477;82;27905;-62
2021/05/07 00:48:29;;;;;;;16.75;7.80;;;;;;;6.48;73.74;99640.09;1729326;81;25725;-62
2021/05/07 00:50:57;;;;;;;16.85;7.58;;;;;;;6.49;73.82;99641.82;1719390;81;25847;-62
2021/05/07 00:53:31;;;;;;;17.50;8.43;;;;;;;6.51;73.83;99638.16;1724830;81;25790;-62
2021/05/07 00:55:59;;;;;;;16.05;7.85;;;;;;;6.51;73.82;99638.62;1709716;81;25894;-61
2021/05/07 00:58:27;;;;;;;13.95;7.53;;;;;;;6.51;73.83;99639.49;1721324;81;27914;-61
2021/05/07 01:00:54;;;;;;;16.80;8.00;;;;;;;6.52;73.83;99639.03;1719052;81;25943;-62
2021/05/07 01:03:23;;;;;;;17.15;8.35;;;;;;;6.50;73.79;99640.89;1710073;81;26528;-62
2021/05/07 01:05:54;;;;;;;15.75;8.48;;;;;;;6.48;73.82;99630.30;1718734;80;25921;-61
2021/05/07 01:08:22;;;;;;;18.48;9.03;;;;;;;6.47;73.82;99633.03;1710932;81;26160;-61
2021/05/07 01:10:53;;;;;;;20.70;8.75;;;;;;;6.44;73.82;99630.50;1725033;81;28447;-62
2021/05/07 01:13:26;;;;;;;19.95;9.20;;;;;;;6.42;73.87;99628.37;1687125;82;25956;-62
2021/05/07 01:15:54;;;;;;;19.67;9.40;;;;;;;6.42;73.92;99625.71;1756715;79;25806;-61
2021/05/07 01:18:22;;;;;;;16.30;9.40;;;;;;;6.40;73.88;99618.25;1767776;79;26424;-62
2021/05/07 01:20:49;;;;;;;17.23;8.48;;;;;;;6.41;73.92;99613.33;1756640;79;25854;-61
2021/05/07 01:23:19;;;;;;;17.00;9.33;;;;;;;6.43;74.02;99616.80;1760381;79;26665;-62
2021/05/07 01:25:49;;;;;;;19.35;10.15;;;;;;;6.43;73.94;99605.68;1761748;79;26279;-62
2021/05/07 01:28:16;;;;;;;18.60;10.28;;;;;;;6.43;73.97;99607.02;1721920;81;25823;-61
2021/05/07 01:30:48;;;;;;;15.63;9.80;;;;;;;6.46;74.02;99606.02;1684466;82;25897;-60
2021/05/07 01:33:23;;;;;;;21.23;11.15;;;;;;;6.44;73.96;99603.88;1709197;82;26329;-60
2021/05/07 01:35:51;;;;;;;18.37;10.85;;;;;;;6.44;74.07;99607.41;1672878;83;27874;-60
2021/05/07 01:38:20;;;;;;;21.10;11.60;;;;;;;6.47;74.10;99608.61;1666624;83;25849;-60
2021/05/07 01:40:52;;;;;;;19.55;10.98;;;;;;;6.49;74.11;99608.55;1692980;81;26397;-60
2021/05/07 01:43:23;;;;;;;21.12;12.00;;;;;;;6.48;74.46;99599.70;1712470;82;25878;-61
2021/05/07 01:45:53;;;;;;;22.20;11.85;;;;;;;6.49;74.11;99601.42;1697986;82;25878;-60
2021/05/07 01:48:20;;;;;;;23.83;11.53;;;;;;;6.51;74.14;99599.56;1690142;83;27846;-60
2021/05/07 01:50:49;;;;;;;21.02;12.45;;;;;;;6.55;74.10;99604.28;1698990;82;25763;-60
2021/05/07 01:53:17;;;;;;;19.80;11.73;;;;;;;6.56;74.16;99598.03;1697220;82;26086;-60
2021/05/07 01:55:49;;;;;;;17.15;11.43;;;;;;;6.58;74.12;99601.48;1699646;82;25956;-60
2021/05/07 01:58:19;;;;;;;20.97;12.25;;;;;;;6.58;74.07;99600.16;1701146;82;25807;-59
2021/05/07 02:00:47;;;;;;;20.12;12.10;;;;;;;6.59;74.11;99598.36;1690418;82;28529;-60
2021/05/07 02:03:18;;;;;;;18.10;11.48;;;;;;;6.60;74.13;99604.08;1755388;79;26643;-60
2021/05/07 02:05:46;;;;;;;18.10;12.18;;;;;;;6.60;74.17;99602.75;1755328;79;26574;-60
2021/05/07 02:08:14;;;;;;;19.98;12.33;;;;;;;6.60;74.11;99607.61;1746776;79;25841;-60
2021/05/07 02:10:42;;;;;;;18.82;11.57;;;;;;;6.56;74.01;99607.34;1732663;79;25912;-60
2021/05/07 02:13:12;;;;;;;21.80;11.95;;;;;;;6.49;74.00;99606.75;1697349;81;27811;-60
2021/05/07 02:15:40;;;;;;;21.45;11.18;;;;;;;6.46;74.08;99600.69;1722319;81;25960;-60
2021/05/07 02:18:09;;;;;;;20.85;10.82;;;;;;;6.47;74.21;99603.75;1714874;81;25881;-59
2021/05/07 02:20:40;;;;;;;19.20;10.50;;;;;;;6.46;74.19;99597.56;1717480;82;25917;-60
2021/05/07 02:23:08;;;;;;;17.42;10.25;;;;;;;6.47;74.27;99601.09;1720116;81;25827;-60
2021/05/07 02:25:36;;;;;;;17.90;8.95;;;;;;;6.48;74.24;99594.37;1720620;81;28056;-60
2021/05/07 02:28:04;;;;;;;17.87;8.58;;;;;;;6.48;74.22;99598.83;1718219;80;26003;-60
2021/05/07 02:30:32;;;;;;;17.48;8.13;;;;;;;6.48;74.30;99599.70;1717926;81;25768;-60
2021/05/07 02:33:00;;;;;;;14.85;7.12;;;;;;;6.48;74.29;99603.69;1732657;79;26256;-60
2021/05/07 02:35:28;;;;;;;11.73;6.53;;;;;;;6.47;74.28;99598.42;1711204;80;26005;-60
2021/05/07 02:37:57;;;;;;;13.10;6.62;;;;;;;6.49;74.27;99593.91;1725499;80;27802;-60
2021/05/07 02:40:25;;;;;;;9.55;5.80;;;;;;;6.48;74.29;99597.03;1717180;80;25905;-59
2021/05/07 02:42:53;;;;;;;10.63;6.30;;;;;;;6.49;74.30;99589.45;1753165;78;25841;-60
2021/05/07 02:45:21;;;;;;;10.60;6.67;;;;;;;6.49;74.31;99588.58;1742174;80;26179;-60
2021/05/07 02:47:50;;;;;;;10.15;6.10;;;;;;;6.50;74.32;99579.66;1739143;78;25917;-61
2021/05/07 02:50:19;;;;;;;11.97;5.58;;;;;;;6.51;74.33;99581.39;1739120;80;27811;-60
2021/05/07 02:52:46;;;;;;;13.28;6.58;;;;;;;6.52;74.30;99579.13;1727018;79;26228;-59
2021/05/07 02:55:14;;;;;;;14.65;6.28;;;;;;;6.54;74.30;99583.92;1729958;79;26289;-60
2021/05/07 02:57:42;;;;;;;12.82;7.15;;;;;;;6.56;74.27;99579.86;1733953;79;25864;-59
2021/05/07 03:00:15;;;;;;;12.60;6.42;;;;;;;6.55;74.28;99582.13;1726255;80;25824;-59
2021/05/07 03:02:42;;;;;;;19.45;7.70;;;;;;;6.56;74.26;99580.73;1728415;79;28357;-59
2021/05/07 03:05:12;;;;;;;22.60;9.38;;;;;;;6.53;74.25;99579.53;1740219;80;25907;-58
2021/05/07 03:07:40;;;;;;;23.80;8.73;;;;;;;6.52;74.27;99584.45;1697890;80;26019;-59
2021/05/07 03:10:09;;;;;;;23.07;9.28;;;;;;;6.49;74.22;99587.25;1740064;80;25863;-59
2021/05/07 03:12:37;;;;;;;23.90;9.93;;;;;;;6.46;74.27;99586.05;1738085;81;25887;-60
2021/05/07 03:15:11;;;;;;;23.27;9.35;;;;;;;6.45;74.31;99589.64;1728192;80;27535;-60
2021/05/07 03:17:40;;;;;;;20.05;8.78;;;;;;;6.45;74.31;99585.66;1735247;81;26757;-59
2021/05/07 03:20:11;;;;;;;11.73;6.50;;;;;;;6.46;74.35;99587.38;1730348;80;25883;-60
2021/05/07 03:22:41;;;;;;;16.02;6.67;;;;;;;6.45;74.33;99591.84;1726464;81;26100;-60
2021/05/07 03:25:11;;;;;;;12.70;6.17;;;;;;;6.44;74.31;99584.78;1751446;80;25880;-60
2021/05/07 03:27:39;;;;;;;9.47;6.00;;;;;;;6.44;74.32;99585.25;1740681;80;27389;-60
2021/05/07 03:30:08;;;;;;;12.15;6.00;;;;;;;6.43;74.29;99588.84;1749541;80;26067;-59
2021/05/07 03:32:36;;;;;;;10.63;5.92;;;;;;;6.39;74.33;99588.58;1746995;80;25815;-59
2021/05/07 03:35:07;;;;;;;10.15;5.10;;;;;;;6.39;74.31;99588.58;1740808;80;25990;-60
2021/05/07 03:37:34;;;;;;;10.10;6.12;;;;;;;6.37;74.27;99579.33;1734944;80;25877;-60
2021/05/07 03:40:04;;;;;;;12.25;5.55;;;;;;;6.37;74.37;99579.33;1735041;81;27368;-60
2021/05/07 03:42:32;;;;;;;9.28;5.62;;;;;;;6.38;74.37;99581.52;1723073;81;25832;-60
2021/05/07 03:45:00;;;;;;;10.23;6.10;;;;;;;6.40;74.36;99583.66;1728564;80;25934;-59
2021/05/07 03:47:27;;;;;;;9.75;6.50;;;;;;;6.41;74.37;99582.72;1726100;81;26536;-60
2021/05/07 03:49:56;;;;;;;10.55;5.53;;;;;;;6.42;74.37;99580.45;1731261;80;26009;-60
2021/05/07 03:52:23;;;;;;;7.62;5.10;;;;;;;6.42;74.35;99581.79;1732879;81;27951;-60
2021/05/07 03:54:51;;;;;;;7.80;5.50;;;;;;;6.43;74.32;99578.20;1737920;80;26143;-60
2021/05/07 03:57:19;;;;;;;9.63;6.05;;;;;;;6.43;74.34;99578.20;1698625;82;26010;-60
2021/05/07 03:59:47;;;;;;;13.48;5.87;;;;;;;6.44;74.37;99581.26;1737317;80;25810;-62
2021/05/07 04:02:16;;;;;;;9.75;5.83;;;;;;;6.46;74.39;99584.72;1739867;81;25823;-60
2021/05/07 04:04:46;;;;;;;10.88;5.78;;;;;;;6.46;74.36;99584.72;1747450;80;25948;-60
2021/05/07 04:07:15;;;;;;;11.23;5.77;;;;;;;6.46;74.37;99586.05;1734366;81;26195;-60
2021/05/07 04:09:53;;;;;;;13.05;5.65;;;;;;;6.48;74.44;99588.18;1716270;80;25847;-60
2021/05/07 04:12:20;;;;;;;9.58;5.70;;;;;;;6.50;74.45;99597.83;1733769;80;25916;-60
2021/05/07 04:14:46;;;;;;;10.63;5.92;;;;;;;6.54;74.43;99600.36;1739327;80;25424;-60
2021/05/07 04:17:14;;;;;;;10.25;5.85;;;;;;;6.56;74.47;99598.50;1743041;80;26830;-60
2021/05/07 04:19:41;;;;;;;9.75;6.37;;;;;;;6.57;74.45;99599.76;1744628;80;25809;-60
2021/05/07 04:22:09;;;;;;;11.80;6.00;;;;;;;6.60;74.48;99598.30;1743334;81;25797;-60
2021/05/07 04:24:40;;;;;;;11.70;5.83;;;;;;;6.62;74.44;99596.43;1742186;80;26083;-60
2021/05/07 04:27:11;;;;;;;12.23;6.62;;;;;;;6.64;74.44;99607.02;1712938;80;26404;-60
2021/05/07 04:29:41;;;;;;;10.95;6.40;;;;;;;6.66;74.49;99602.02;1736316;79;28199;-59
2021/05/07 04:32:11;;;;;;;9.75;5.92;;;;;;;6.72;74.57;99605.75;1743793;81;26080;-59
2021/05/07 04:34:41;;;;;;;10.23;5.80;;;;;;;6.75;74.51;99602.95;1734515;80;26021;-61
2021/05/07 04:37:10;;;;;;;10.30;5.37;;;;;;;6.78;74.54;99605.94;1708303;82;25841;-59
2021/05/07 04:39:37;;;;;;;13.88;6.20;;;;;;;6.81;74.51;99608.47;1710999;81;25912;-59
2021/05/07 04:42:07;;;;;;;8.78;5.20;;;;;;;6.82;74.49;99605.73;1716946;81;28114;-59
2021/05/07 04:44:41;;;;;;;12.70;6.30;;;;;;;6.83;74.48;99612.80;1714668;82;25991;-59
2021/05/07 04:47:08;;;;;;;8.18;4.97;;;;;;;6.84;74.49;99610.53;1715755;81;26408;-59
2021/05/07 04:49:39;;;;;;;10.55;6.10;;;;;;;6.87;74.50;99619.31;1716207;81;25773;-59
2021/05/07 04:52:07;;;;;;;10.72;6.40;;;;;;;6.91;74.52;99619.58;1784302;79;25952;-60
2021/05/07 04:54:37;;;;;;;10.80;6.35;;;;;;;6.96;74.54;99629.56;1778288;78;28471;-59
2021/05/07 04:57:07;;;;;;;10.82;6.50;;;;;;;7.00;74.49;99623.16;1765043;78;25952;-60
2021/05/07 04:59:35;;;;;;;10.43;6.12;;;;;;;7.04;74.54;99625.62;1788208;78;25876;-60
2021/05/07 05:02:03;;;;;;;11.05;6.12;;;;;;;7.11;74.46;99632.86;1782921;79;26480;-60
2021/05/07 05:04:31;;;;;;;8.68;6.12;;;;;;;7.16;74.50;99632.19;1799251;79;25841;-60
2021/05/07 05:07:01;;;;;;;12.25;6.05;;;;;;;7.22;74.50;99637.23;1779875;78;28250;-60
2021/05/07 05:09:29;;;;;;;15.05;7.95;;;;;;;7.28;74.48;99636.96;1769454;79;26436;-61
2021/05/07 05:12:00;;;;;;;13.10;6.22;;;;;;;7.34;74.46;99642.01;1785201;78;25774;-60
2021/05/07 05:14:29;;;;;;;16.25;6.20;;;;;;;7.38;74.41;99644.94;1773394;78;25688;-59
2021/05/07 05:17:01;;;;;;;14.50;6.08;;;;;;;7.39;74.35;99649.80;1783953;77;25909;-60
2021/05/07 05:19:30;;;;;;;11.57;5.70;;;;;;;7.40;74.27;99652.86;1789393;78;28333;-60
2021/05/07 05:21:58;;;;;;;10.43;4.90;;;;;;;7.32;74.08;99649.21;1784044;78;25839;-60
2021/05/07 05:24:26;;;;;;;9.93;5.33;;;;;;;7.32;74.21;99649.21;1784144;78;26000;-60
2021/05/07 05:26:54;;;;;;;13.90;5.37;;;;;;;7.36;74.20;99646.80;1772698;78;26380;-60
2021/05/07 05:29:24;;;;;;;7.35;4.78;;;;;;;7.36;74.03;99648.14;1773856;79;25822;-59
2021/05/07 05:31:51;;;;;;;8.33;4.90;;;;;;;7.37;74.06;99655.66;1779381;78;28565;-60
2021/05/07 05:34:21;;;;;;;6.47;4.42;;;;;;;7.39;74.04;99649.33;1779159;79;25807;-59
2021/05/07 05:36:49;;;;;;;14.43;5.85;;;;;;;7.46;74.02;99650.77;1787819;78;25798;-60
2021/05/07 05:39:17;;;;;;;10.15;5.50;;;;;;;7.48;73.92;99647.56;1804902;78;26443;-60
2021/05/07 05:41:46;;;;;;;7.70;4.83;;;;;;;7.53;73.94;99647.82;1776447;78;25827;-59
2021/05/07 05:44:14;;;;;;;14.85;6.42;;;;;;;7.55;73.82;99645.95;1787149;78;27965;-60
2021/05/07 05:46:41;;;;;;;8.55;5.30;;;;;;;7.53;73.74;99646.02;1778447;78;25800;-60
2021/05/07 05:49:10;;;;;;;10.58;5.22;;;;;;;7.59;73.74;99650.20;1783556;77;25866;-60
2021/05/07 05:51:38;;;;;;;13.50;5.60;;;;;;;7.63;73.68;99651.31;1806476;77;25759;-59
2021/05/07 05:54:07;;;;;;;9.35;4.92;;;;;;;7.68;73.66;99659.10;1779733;79;26513;-59
2021/05/07 05:56:34;;;;;;;10.95;4.83;;;;;;;7.73;73.60;99663.28;1795318;77;27467;-60
2021/05/07 05:59:04;;;;;;;9.13;4.60;;;;;;;7.78;73.52;99665.73;1775188;78;26187;-61
2021/05/07 06:01:32;;;;;;;7.12;4.42;;;;;;;7.83;73.47;99665.02;1777805;78;26107;-59
2021/05/07 06:03:59;;;;;;;10.03;4.42;;;;;;;7.84;73.35;99668.08;1774115;78;25813;-59
2021/05/07 06:06:31;;;;;;;8.18;4.75;;;;;;;7.82;73.27;99666.81;1782560;78;25979;-60
2021/05/07 06:09:02;;;;;;;11.55;3.95;;;;;;;7.87;73.25;99665.73;1778616;79;25940;-60
2021/05/07 06:11:31;;;;;;;;;;;;;;;7.96;73.19;99662.62;1787687;77;25847;-60
2021/05/07 06:13:58;;;;;;;12.13;4.30;;;;;;;8.02;73.02;99661.85;1769188;79;26465;-60
2021/05/07 06:16:27;;;;;;;6.62;4.30;;;;;;;8.06;73.04;99663.91;1774228;78;25880;-60
2021/05/07 06:18:57;;;;;;;7.05;3.65;;;;;;;8.18;73.04;99667.31;1783709;78;26032;-60
2021/05/07 06:21:25;;;;;;;13.85;5.15;;;;;;;8.27;72.95;99672.19;1769220;79;28586;-60
2021/05/07 06:23:53;;;;;;;18.82;5.10;;;;;;;8.31;72.76;99667.09;1737625;80;25857;-60
2021/05/07 06:26:21;;;;;;;6.15;4.30;;;;;;;8.34;72.68;99668.31;1716663;82;25895;-59
2021/05/07 06:28:49;;;;;;;5.90;3.75;;;;;;;8.41;72.64;99669.73;1712526;81;26357;-59
2021/05/07 06:31:18;;;;;;;11.35;4.15;;;;;;;8.41;72.25;99676.88;1755785;80;25827;-61
2021/05/07 06:33:46;;;;;;;11.28;3.60;;;;;;;8.37;72.02;99682.84;1718611;80;26025;-61
2021/05/07 06:36:17;;;;;;;10.03;4.00;;;;;;;8.39;72.00;99690.31;1744547;80;25943;-61
2021/05/07 06:38:43;;;;;;;8.40;5.15;;;;;;;8.42;71.86;99689.30;1701131;81;25954;-61
2021/05/07 06:41:12;;;;;;;12.58;4.05;;;;;;;8.39;71.43;99682.30;1773488;78;26723;-60
2021/05/07 06:43:40;;;;;;;13.55;5.42;;;;;;;8.34;71.24;99691.48;1781010;78;25849;-60
2021/05/07 06:46:11;;;;;;;8.70;4.47;;;;;;;8.40;71.37;99689.84;1780359;78;27612;-59
2021/05/07 06:48:42;;;;;;;16.27;4.37;;;;;;;8.51;71.38;99683.49;1775585;78;25969;-62
2021/05/07 06:51:09;;;;;;;;;;;;;;;8.61;71.29;99679.89;1717470;81;25805;-59
2021/05/07 06:53:38;;;;;;;17.87;4.65;;;;;;;8.65;71.09;99685.00;1773333;78;25892;-59
2021/05/07 06:56:07;;;;;;;5.50;3.20;;;;;;;8.63;71.00;99683.34;1794415;78;26055;-59
2021/05/07 06:58:37;;;;;;;6.50;3.87;;;;;;;8.63;70.73;99694.03;1779286;78;28544;-60
2021/05/07 07:01:04;;;;;;;12.30;5.10;;;;;;;8.60;70.67;99685.70;1747345;78;25852;-59
2021/05/07 07:03:32;;;;;;;9.90;3.58;;;;;;;8.62;70.40;99687.83;1751569;79;26359;-61
2021/05/07 07:06:00;;;;;;;5.78;3.90;;;;;;;8.59;70.23;99692.45;1761132;79;25969;-60
2021/05/07 07:08:27;;;;;;;14.47;4.75;;;;;;;8.59;70.28;99685.31;1743522;80;25924;-60
2021/05/07 07:11:01;;;;;;;10.08;4.40;;;;;;;8.62;70.29;99681.62;1780885;78;27747;-61
2021/05/07 07:13:31;;;;;;;10.03;4.33;;;;;;;8.64;70.21;99682.41;1780224;78;25443;-60
2021/05/07 07:15:59;;;;;;;13.62;4.60;;;;;;;8.65;69.93;99686.34;1786227;79;26215;-60
2021/05/07 07:18:27;;;;;;;9.30;4.20;;;;;;;8.65;69.85;99681.46;1780039;78;25838;-60
2021/05/07 07:20:55;;;;;;;10.55;5.60;;;;;;;8.70;69.99;99694.12;1777186;78;25816;-60
2021/05/07 07:23:22;;;;;;;10.10;4.62;;;;;;;8.74;69.83;99683.67;1782936;78;28450;-60
2021/05/07 07:25:52;;;;;;;7.20;4.80;;;;;;;8.76;69.76;99689.80;1799883;78;26477;-61
2021/05/07 07:28:19;;;;;;;12.00;5.05;;;;;;;8.74;69.71;99692.55;1781048;79;26454;-60
2021/05/07 07:30:49;;;;;;;12.13;4.92;;;;;;;8.74;69.59;99688.53;1781860;78;25967;-60
2021/05/07 07:33:18;;;;;;;9.85;5.10;;;;;;;8.76;69.55;99697.81;1788397;79;25933;-60
2021/05/07 07:35:46;;;;;;;9.75;5.65;;;;;;;8.72;69.27;99690.42;1779993;78;27432;-60
2021/05/07 07:38:14;;;;;;;9.08;4.87;;;;;;;8.78;69.48;99693.25;1769229;78;25913;-59
2021/05/07 07:40:43;;;;;;;11.83;4.33;;;;;;;8.89;69.51;99698.91;1779707;79;25775;-60
2021/05/07 07:43:11;;;;;;;8.60;4.50;;;;;;;8.96;69.14;99693.64;1782113;78;26426;-60
2021/05/07 07:45:38;;;;;;;9.30;5.37;;;;;;;9.04;69.07;99694.58;1787447;78;25916;-60
2021/05/07 07:48:09;;;;;;;17.48;5.95;;;;;;;9.09;69.15;99693.88;1753103;80;27650;-61
2021/05/07 07:50:40;;;;;;;7.92;4.75;;;;;;;9.28;69.34;99689.28;1719160;81;25818;-60
2021/05/07 07:53:08;;;;;;;6.85;4.30;;;;;;;9.46;69.05;99694.59;1717227;82;26013;-59
2021/05/07 07:55:37;;;;;;;9.68;4.12;;;;;;;9.55;68.90;99694.09;1728072;81;25888;-62
2021/05/07 07:58:05;;;;;;;18.85;3.87;;;;;;;9.58;68.47;99694.79;1704993;81;25980;-61
2021/05/07 08:00:36;;;;;;;6.55;3.65;;;;;;;9.68;68.36;99705.38;1711286;81;27618;-60
2021/05/07 08:03:05;;;;;;;15.30;4.58;;;;;;;9.80;68.19;99698.50;1764606;77;26253;-60
2021/05/07 08:05:35;;;;;;;7.08;3.87;;;;;;;9.83;67.78;99698.33;1771676;77;26041;-61
2021/05/07 08:08:03;;;;;;;15.63;5.22;;;;;;;9.91;67.83;99693.89;1777045;78;25754;-60
2021/05/07 08:10:33;;;;;;;8.80;4.45;;;;;;;9.98;67.66;99696.61;1780795;78;25962;-61
2021/05/07 08:13:01;;;;;;;12.25;4.83;;;;;;;10.03;66.97;99696.74;1773886;78;28542;-62
2021/05/07 08:15:32;;;;;;;11.18;4.80;;;;;;;10.04;67.26;99694.45;1784687;78;25919;-61
2021/05/07 08:18:00;;;;;;;11.03;4.50;;;;;;;10.10;67.35;99690.56;1784286;79;26242;-61
2021/05/07 08:20:28;;;;;;;10.08;4.20;;;;;;;10.20;66.25;99689.60;1786598;79;25952;-62
2021/05/07 08:22:58;;;;;;;6.67;4.50;;;;;;;10.22;66.98;99688.56;1785392;78;25919;-61
2021/05/07 08:25:29;;;;;;;11.08;4.97;;;;;;;10.36;66.98;99693.12;1777791;78;27882;-61
2021/05/07 08:27:57;;;;;;;10.93;4.50;;;;;;;10.37;66.78;99694.38;1788713;77;26019;-61
2021/05/07 08:30:27;;;;;;;10.00;4.78;;;;;;;10.32;66.41;99693.78;1780846;78;25957;-60
2021/05/07 08:32:54;;;;;;;14.28;4.35;;;;;;;10.35;66.53;99692.74;1786424;78;25777;-61
2021/05/07 08:35:24;;;;;;;11.33;4.72;;;;;;;10.49;66.48;99698.13;1760444;79;25926;-60
2021/05/07 08:37:52;;;;;;;13.55;4.40;;;;;;;10.45;66.07;99697.06;1777581;78;27197;-61
2021/05/07 08:40:24;;;;;;;6.78;4.40;;;;;;;10.37;66.01;99713.13;1779946;79;25951;-61
2021/05/07 08:42:54;;;;;;;10.65;5.05;;;;;;;10.08;65.33;99706.72;1778574;78;25795;-61
2021/05/07 08:45:24;;;;;;;12.93;5.77;;;;;;;9.69;65.60;99712.94;1766464;78;26180;-60
2021/05/07 08:47:53;;;;;;;6.95;4.75;;;;;;;9.41;65.73;99718.44;1779483;78;25892;-61
2021/05/07 08:50:22;;;;;;;12.68;5.47;;;;;;;9.23;66.03;99722.08;1772986;79;27876;-60
2021/05/07 08:52:50;;;;;;;10.18;5.75;;;;;;;9.06;66.34;99722.96;1773855;79;26408;-65
2021/05/07 08:55:19;;;;;;;9.20;5.30;;;;;;;9.05;66.59;99725.24;1776668;78;25839;-61
2021/05/07 08:57:49;;;;;;;14.05;5.78;;;;;;;9.05;66.69;99731.06;1777015;78;25956;-61
2021/05/07 09:00:18;;;;;;;12.10;6.30;;;;;;;9.06;66.92;99728.78;1729736;80;25904;-62
2021/05/07 09:02:46;;;;;;;7.03;4.72;;;;;;;9.15;67.04;99728.78;1758773;79;26330;-61
2021/05/07 09:05:17;;;;;;;7.72;5.08;;;;;;;9.22;67.13;99724.37;1745055;80;26311;-61
2021/05/07 09:07:54;;;;;;;10.35;5.15;;;;;;;9.29;67.30;99726.25;1741753;79;26626;-60
2021/05/07 09:10:31;;;;;;;8.35;5.55;;;;;;;9.38;67.41;99720.41;1713104;80;25883;-60
2021/05/07 09:12:59;;;;;;;8.43;5.20;;;;;;;9.52;67.58;99727.70;1802441;78;25903;-61
2021/05/07 09:15:45;;;;;;;10.90;5.22;;;;;;;9.63;67.56;99719.48;1782017;78;26325;-61
2021/05/07 09:18:16;;;;;;;9.35;5.40;;;;;;;9.76;67.61;99722.36;1796166;78;25886;-61
2021/05/07 09:20:47;;;;;;;8.45;5.55;;;;;;;9.88;67.67;99719.48;1775335;78;25838;-61
2021/05/07 09:23:17;;;;;;;8.93;5.87;;;;;;;10.00;67.72;99715.66;1758027;79;26038;-63
2021/05/07 09:25:53;;;;;;;8.20;5.72;;;;;;;10.18;67.83;99712.89;1783983;77;25844;-63
2021/05/07 09:28:21;;;;;;;7.53;5.67;;;;;;;10.36;67.77;99712.74;1787181;78;28016;-62
2021/05/07 09:30:51;;;;;;;14.85;6.45;;;;;;;10.51;67.30;99711.44;1783498;78;25886;-61
2021/05/07 09:33:18;;;;;;;6.25;4.70;;;;;;;10.63;67.57;99710.73;1790224;78;25877;-62
2021/05/07 09:35:50;;;;;;;6.83;4.62;;;;;;;10.82;67.41;99719.89;1794846;78;26465;-61
2021/05/07 09:38:20;;;;;;;7.75;5.25;;;;;;;10.95;66.68;99715.53;1775149;79;25867;-61
2021/05/07 09:40:49;;;;;;;6.50;3.77;;;;;;;11.06;62.75;99708.57;1792198;78;25813;-60
2021/05/07 09:43:20;;;;;;;5.67;3.70;;;;;;;11.03;66.42;99717.28;1795942;78;25993;-60
2021/05/07 09:45:50;;;;;;;8.25;4.15;;;;;;;11.03;66.43;99715.94;1774627;78;26443;-61
2021/05/07 09:48:27;;;;;;;8.53;5.37;;;;;;;11.12;66.44;99710.02;1785560;79;25891;-60
2021/05/07 09:51:05;;;;;;;6.60;5.17;;;;;;;11.22;66.11;99718.37;1779260;78;25938;-62
2021/05/07 09:53:39;;;;;;;5.10;3.98;;;;;;;11.19;65.93;99720.77;1746605;80;27994;-60
2021/05/07 09:56:21;;;;;;;9.80;5.00;;;;;;;11.10;65.57;99721.31;1779247;79;26624;-61
2021/05/07 09:58:51;;;;;;;6.95;4.20;;;;;;;10.92;65.03;99734.48;1774265;78;26013;-66
2021/05/07 10:01:19;;;;;;;6.10;4.90;;;;;;;10.74;64.24;99737.29;1805720;78;26329;-62
2021/05/07 10:03:48;;;;;;;8.35;4.87;;;;;;;10.62;64.23;99732.64;1789502;78;25987;-62
2021/05/07 10:06:17;;;;;;;6.72;4.70;;;;;;;10.54;63.23;99736.72;1785030;78;25954;-60
2021/05/07 10:08:46;;;;;;;10.38;5.83;;;;;;;10.49;63.39;99734.30;1791365;78;26157;-62
2021/05/07 10:11:16;;;;;;;11.08;5.70;;;;;;;10.48;62.29;99752.67;1796719;79;25806;-62
2021/05/07 10:13:48;;;;;;;11.75;4.97;;;;;;;10.34;62.81;99748.13;1783248;79;25829;-61
2021/05/07 10:16:30;;;;;;;12.57;4.70;;;;;;;10.09;62.16;99755.78;1783949;79;25843;-62
2021/05/07 10:19:06;;;;;;;10.20;4.42;;;;;;;9.86;62.31;99753.50;1783171;78;26389;-61
2021/05/07 10:21:44;;;;;;;6.65;3.98;;;;;;;9.69;62.47;99761.10;1785416;79;25985;-61
2021/05/07 10:24:19;;;;;;;8.03;3.92;;;;;;;9.55;62.70;99752.95;1780611;78;25827;-62
2021/05/07 10:26:54;;;;;;;6.15;3.40;;;;;;;9.46;62.67;99760.98;1775588;79;25810;-61
2021/05/07 10:29:27;;;;;;;5.67;3.62;;;;;;;9.39;62.77;99767.61;1780331;79;25883;-62
2021/05/07 10:32:00;;;;;;;7.42;2.85;;;;;;;9.34;62.77;99771.86;1776000;78;28101;-62
2021/05/07 10:34:28;;;;;;;5.08;3.05;;;;;;;9.26;62.89;99775.41;1774424;78;25973;-61
2021/05/07 10:37:05;;;;;;;7.65;3.10;;;;;;;9.23;62.96;99781.38;1779489;78;25896;-62
2021/05/07 10:39:32;;;;;;;5.50;3.58;;;;;;;9.20;63.04;99778.39;1788211;78;25828;-62
2021/05/07 10:42:02;;;;;;;7.80;3.65;;;;;;;9.27;63.08;99785.16;1780466;79;26173;-62
2021/05/07 10:44:42;;;;;;;7.80;3.10;;;;;;;9.36;63.33;99786.02;1784396;78;26484;-63
2021/05/07 10:47:11;;;;;;;8.78;3.65;;;;;;;9.48;63.18;99785.84;1774859;78;26131;-60
2021/05/07 10:49:44;;;;;;;8.50;3.83;;;;;;;9.54;62.80;99783.32;1779515;79;26526;-60
2021/05/07 10:52:16;;;;;;;15.40;3.72;;;;;;;9.65;62.85;99786.30;1776614;79;25901;-60
2021/05/07 10:54:53;;;;;;;9.55;2.85;;;;;;;9.82;62.70;99787.59;1773119;79;25831;-60
2021/05/07 10:57:32;;;;;;;10.68;2.87;;;;;;;9.90;62.15;99788.52;1782625;79;27628;-61
2021/05/07 11:00:08;;;;;;;7.80;2.40;;;;;;;9.91;61.33;99794.27;1777560;79;25741;-61
2021/05/07 11:02:45;;;;;;;12.07;2.30;;;;;;;9.80;59.79;99789.96;1775611;79;26161;-61
2021/05/07 11:05:36;;;;;;;5.85;1.75;;;;;;;9.81;60.41;99799.25;1810665;77;25979;-62
2021/05/07 11:08:05;;;;;;;5.05;2.33;;;;;;;9.87;59.97;99796.23;1771829;79;25959;-62
2021/05/07 11:10:34;;;;;;;6.40;2.50;;;;;;;9.94;59.95;99808.34;1774964;78;26115;-60
2021/05/07 11:13:02;;;;;;;7.83;2.05;;;;;;;9.98;59.81;99799.20;1761958;78;25909;-60
2021/05/07 11:15:30;;;;;;;10.82;3.20;;;;;;;10.03;59.34;99812.34;1764947;79;26615;-59
2021/05/07 11:18:06;;;;;;;9.48;2.83;;;;;;;9.93;58.16;99823.16;1750882;79;26487;-59
2021/05/07 11:20:45;;;;;;;11.25;3.62;;;;;;;9.71;57.46;99811.39;1713305;81;25851;-60
2021/05/07 11:23:14;;;;;;;4.53;2.50;;;;;;;9.59;58.16;99819.59;1713272;81;27874;-61
2021/05/07 11:25:42;;;;;;;8.68;4.12;;;;;;;9.54;58.04;99826.13;1694736;81;26411;-61
2021/05/07 11:28:18;;;;;;;17.02;3.12;;;;;;;9.42;58.02;99824.48;1718683;81;26035;-62
2021/05/07 11:30:56;;;;;;;11.00;3.50;;;;;;;9.30;58.24;99855.86;1701591;82;26227;-62
2021/05/07 11:33:28;;;;;;;5.97;3.83;;;;;;;9.09;58.40;99848.45;1705991;82;25834;-63
2021/05/07 11:36:08;;;;;;;7.20;4.40;;;;;;;8.92;59.02;99860.44;1692420;81;25912;-62
2021/05/07 11:38:38;;;;;;;11.70;5.40;;;;;;;8.71;59.57;99861.48;1697343;82;25956;-62
2021/05/07 11:41:26;;;;;;;10.28;5.17;;;;;;;8.56;60.32;99884.45;1707410;82;26223;-62
2021/05/07 11:43:55;;;;;;;9.35;3.42;;;;;;;8.41;61.31;99894.52;1697978;82;26880;-62
2021/05/07 11:46:23;;;;;;;5.35;3.10;;;;;;;7.67;61.88;99920.09;1694452;81;25844;-61